Time;durP1;ratioP1;P1;durP2;ratioP2;P2;SDS_P1;SDS_P2;PMS_P1;PMS_P2;Temp;Humidity;BMP_temperature;BMP_pressure;BME280_temperature;BME280_humidity;BME280_pressure;Samples;Min_cycle;Max_cycle;Signal;HPM_P1;HPM_P2
2023/09/27 00:00:55;;;;;;;23.20;21.90;;;;;;;;;;5015693;28;20444;-87
2023/09/27 00:03:22;;;;;;;24.63;23.23;;;;;;;;;;5018460;28;20445;-86
2023/09/27 00:05:50;;;;;;;25.80;24.03;;;;;;;;;;5018064;28;20452;-87
2023/09/27 00:08:17;;;;;;;24.80;23.20;;;;;;;;;;5020127;28;20465;-87
2023/09/27 00:10:44;;;;;;;24.53;23.00;;;;;;;;;;5015171;28;20994;-88
2023/09/27 00:13:11;;;;;;;25.97;24.10;;;;;;;;;;5015035;28;20972;-86
2023/09/27 00:15:38;;;;;;;24.63;23.10;;;;;;;;;;5015057;28;20438;-87
2023/09/27 00:18:09;;;;;;;25.00;23.60;;;;;;;;;;5023982;28;20437;-88
2023/09/27 00:20:36;;;;;;;24.40;23.00;;;;;;;;;;5021695;28;20433;-88
2023/09/27 00:23:05;;;;;;;25.20;23.70;;;;;;;;;;5016017;28;20471;-88
2023/09/27 00:25:32;;;;;;;25.70;24.20;;;;;;;;;;5016745;28;20437;-87
2023/09/27 00:27:59;;;;;;;24.40;23.07;;;;;;;;;;5015832;28;20487;-87
2023/09/27 00:30:26;;;;;;;24.90;23.50;;;;;;;;;;5016233;28;20431;-87
2023/09/27 00:32:54;;;;;;;24.10;22.70;;;;;;;;;;5015696;28;20534;-87
2023/09/27 00:35:22;;;;;;;23.33;21.93;;;;;;;;;;5016071;28;20421;-86
2023/09/27 00:37:50;;;;;;;23.13;21.80;;;;;;;;;;5015342;28;20464;-87
2023/09/27 00:40:18;;;;;;;24.20;22.90;;;;;;;;;;5016390;28;20431;-87
2023/09/27 00:42:47;;;;;;;23.80;22.50;;;;;;;;;;5017624;28;20520;-86
2023/09/27 00:45:14;;;;;;;24.40;23.10;;;;;;;;;;5016411;28;20416;-87
2023/09/27 00:47:42;;;;;;;24.40;23.00;;;;;;;;;;5015019;28;20835;-87
2023/09/27 00:50:09;;;;;;;24.50;23.07;;;;;;;;;;5016396;28;20420;-88
2023/09/27 00:52:39;;;;;;;24.00;22.60;;;;;;;;;;5020850;28;20488;-88
2023/09/27 00:55:07;;;;;;;24.80;23.30;;;;;;;;;;5017229;28;20433;-87
2023/09/27 00:57:34;;;;;;;24.67;23.27;;;;;;;;;;5015045;28;20813;-87
2023/09/27 01:00:02;;;;;;;24.57;23.07;;;;;;;;;;5016441;28;20944;-86
2023/09/27 01:02:29;;;;;;;24.93;23.47;;;;;;;;;;5019781;28;20460;-88
2023/09/27 01:04:56;;;;;;;24.10;22.60;;;;;;;;;;5019704;28;20456;-87
2023/09/27 01:07:24;;;;;;;24.97;23.47;;;;;;;;;;5018662;28;20535;-87
2023/09/27 01:09:52;;;;;;;25.20;23.50;;;;;;;;;;5018889;28;20418;-87
2023/09/27 01:12:19;;;;;;;23.83;22.37;;;;;;;;;;5018994;28;20514;-87
2023/09/27 01:14:48;;;;;;;24.47;22.77;;;;;;;;;;5019172;28;20452;-88
2023/09/27 01:17:15;;;;;;;24.87;23.17;;;;;;;;;;5004234;28;20461;-87
2023/09/27 01:19:42;;;;;;;24.37;22.47;;;;;;;;;;4999760;28;20806;-87
2023/09/27 01:22:09;;;;;;;24.30;22.80;;;;;;;;;;4999535;28;20456;-87
2023/09/27 01:24:38;;;;;;;26.00;24.20;;;;;;;;;;4999375;28;20946;-87
2023/09/27 01:27:07;;;;;;;25.57;23.97;;;;;;;;;;4998894;28;20802;-86
2023/09/27 01:29:43;;;;;;;24.00;22.50;;;;;;;;;;4999181;28;20581;-87
2023/09/27 01:32:10;;;;;;;23.13;21.87;;;;;;;;;;4999012;28;20447;-87
2023/09/27 01:34:38;;;;;;;22.80;21.60;;;;;;;;;;4999452;28;20439;-87
2023/09/27 01:37:07;;;;;;;23.43;22.13;;;;;;;;;;5000176;28;20525;-88
2023/09/27 01:39:34;;;;;;;24.40;22.90;;;;;;;;;;5000046;28;20463;-85
2023/09/27 01:42:03;;;;;;;23.70;22.30;;;;;;;;;;4999929;28;20427;-86
2023/09/27 01:44:30;;;;;;;23.70;22.40;;;;;;;;;;4999458;28;20440;-87
2023/09/27 01:46:58;;;;;;;24.87;23.07;;;;;;;;;;4999347;28;20515;-87
2023/09/27 01:49:25;;;;;;;25.17;23.77;;;;;;;;;;4999072;28;20463;-87
2023/09/27 01:51:52;;;;;;;26.17;24.60;;;;;;;;;;4999933;28;20771;-87
2023/09/27 01:54:19;;;;;;;24.83;23.43;;;;;;;;;;4999033;28;20441;-87
2023/09/27 01:56:46;;;;;;;24.50;23.10;;;;;;;;;;4998267;28;20433;-87
2023/09/27 01:59:16;;;;;;;23.57;22.07;;;;;;;;;;4998579;28;20939;-88
2023/09/27 02:01:44;;;;;;;24.67;23.17;;;;;;;;;;4998284;28;20574;-88
2023/09/27 02:04:11;;;;;;;24.40;22.90;;;;;;;;;;4998201;28;20491;-87
2023/09/27 02:06:38;;;;;;;23.17;21.87;;;;;;;;;;4998185;28;20780;-87
2023/09/27 02:09:05;;;;;;;24.93;23.53;;;;;;;;;;4998404;28;20953;-87
2023/09/27 02:11:32;;;;;;;25.83;24.23;;;;;;;;;;4997753;28;20428;-87
2023/09/27 02:14:03;;;;;;;25.37;23.93;;;;;;;;;;4998706;28;20508;-86
2023/09/27 02:16:32;;;;;;;24.90;23.47;;;;;;;;;;4997814;28;20435;-87
2023/09/27 02:18:59;;;;;;;25.00;23.50;;;;;;;;;;4998106;28;20451;-87
2023/09/27 02:21:26;;;;;;;25.83;24.23;;;;;;;;;;4998236;28;20456;-86
2023/09/27 02:23:53;;;;;;;24.63;23.20;;;;;;;;;;4998779;28;20480;-86
2023/09/27 02:26:20;;;;;;;25.13;23.30;;;;;;;;;;4997716;28;20408;-87
2023/09/27 02:28:47;;;;;;;24.60;23.00;;;;;;;;;;4998072;28;20994;-87
2023/09/27 02:31:14;;;;;;;25.80;24.30;;;;;;;;;;4998876;28;20469;-87
2023/09/27 02:33:43;;;;;;;25.50;23.90;;;;;;;;;;4998052;28;20456;-87
2023/09/27 02:36:10;;;;;;;24.07;22.77;;;;;;;;;;4997619;28;20412;-87
2023/09/27 02:38:37;;;;;;;23.87;22.43;;;;;;;;;;4998009;28;20942;-87
2023/09/27 02:41:04;;;;;;;24.40;23.00;;;;;;;;;;4997457;28;20548;-86
2023/09/27 02:43:32;;;;;;;23.63;22.30;;;;;;;;;;5004360;28;20444;-88
2023/09/27 02:45:59;;;;;;;25.53;23.87;;;;;;;;;;4996655;28;20920;-88
2023/09/27 02:48:26;;;;;;;24.77;23.20;;;;;;;;;;4996902;28;20455;-88
2023/09/27 02:50:55;;;;;;;24.57;23.10;;;;;;;;;;4997051;28;20508;-87
2023/09/27 02:53:22;;;;;;;25.70;24.03;;;;;;;;;;4996669;28;20440;-88
2023/09/27 02:55:49;;;;;;;25.40;23.80;;;;;;;;;;4996394;28;20435;-87
2023/09/27 02:58:16;;;;;;;24.80;23.43;;;;;;;;;;4996402;28;20457;-88
2023/09/27 03:00:43;;;;;;;24.50;23.10;;;;;;;;;;4996640;28;20799;-89
2023/09/27 03:03:10;;;;;;;25.47;23.87;;;;;;;;;;4997703;28;20982;-88
2023/09/27 03:05:38;;;;;;;25.77;24.27;;;;;;;;;;4997088;28;20420;-88
2023/09/27 03:08:07;;;;;;;25.50;24.00;;;;;;;;;;4997212;28;20470;-88
2023/09/27 03:10:38;;;;;;;24.73;23.20;;;;;;;;;;4997187;28;20473;-88
2023/09/27 03:13:07;;;;;;;24.83;23.20;;;;;;;;;;4997236;28;20462;-88
2023/09/27 03:15:34;;;;;;;24.70;23.10;;;;;;;;;;4996799;28;20473;-89
2023/09/27 03:18:01;;;;;;;24.80;23.20;;;;;;;;;;5004317;28;20796;-88
2023/09/27 03:20:30;;;;;;;26.97;25.27;;;;;;;;;;5014377;28;20440;-88
2023/09/27 03:22:57;;;;;;;24.57;23.07;;;;;;;;;;4996796;28;20473;-88
2023/09/27 03:25:26;;;;;;;24.93;23.30;;;;;;;;;;4997159;28;20456;-88
2023/09/27 03:27:54;;;;;;;25.67;23.97;;;;;;;;;;4996198;28;20481;-88
2023/09/27 03:30:21;;;;;;;24.90;23.50;;;;;;;;;;4997078;28;20460;-89
2023/09/27 03:32:48;;;;;;;25.13;23.63;;;;;;;;;;4996467;28;21149;-88
2023/09/27 03:35:15;;;;;;;23.17;21.97;;;;;;;;;;4996689;28;20416;-88
2023/09/27 03:37:44;;;;;;;24.60;23.03;;;;;;;;;;4995508;28;20497;-87
2023/09/27 03:40:13;;;;;;;24.60;23.20;;;;;;;;;;4996973;28;21034;-88
2023/09/27 03:42:42;;;;;;;25.70;24.00;;;;;;;;;;4996264;28;20469;-89
2023/09/27 03:45:10;;;;;;;24.53;23.20;;;;;;;;;;4996844;28;20433;-88
2023/09/27 03:47:37;;;;;;;24.87;23.37;;;;;;;;;;4995789;28;20423;-88
2023/09/27 03:50:04;;;;;;;24.37;22.97;;;;;;;;;;4996154;28;20491;-87
2023/09/27 03:52:31;;;;;;;25.10;23.70;;;;;;;;;;4996061;28;20477;-88
2023/09/27 03:54:58;;;;;;;24.47;22.97;;;;;;;;;;4995767;28;20428;-88
2023/09/27 03:57:25;;;;;;;24.50;23.10;;;;;;;;;;4995354;28;20460;-88
2023/09/27 03:59:54;;;;;;;22.93;21.73;;;;;;;;;;4995869;28;20423;-88
2023/09/27 04:02:21;;;;;;;24.60;23.20;;;;;;;;;;4996128;28;20428;-88
2023/09/27 04:04:48;;;;;;;24.73;23.33;;;;;;;;;;4996101;28;20451;-87
2023/09/27 04:07:15;;;;;;;23.60;22.20;;;;;;;;;;4995366;28;20453;-87
2023/09/27 04:09:42;;;;;;;25.30;23.70;;;;;;;;;;4996402;28;20488;-87
2023/09/27 04:12:11;;;;;;;24.97;23.47;;;;;;;;;;4995575;28;20453;-88
2023/09/27 04:14:38;;;;;;;23.60;22.23;;;;;;;;;;4995748;28;20420;-87
2023/09/27 04:17:07;;;;;;;24.13;22.67;;;;;;;;;;4995582;28;20412;-88
2023/09/27 04:19:34;;;;;;;24.30;22.60;;;;;;;;;;4996287;28;20450;-88
2023/09/27 04:22:01;;;;;;;25.67;23.87;;;;;;;;;;4996442;28;20960;-88
2023/09/27 04:24:28;;;;;;;25.23;23.70;;;;;;;;;;4996567;28;20446;-88
2023/09/27 04:26:55;;;;;;;25.73;23.87;;;;;;;;;;4996002;28;20409;-88
2023/09/27 04:29:22;;;;;;;25.80;24.30;;;;;;;;;;4996006;28;20481;-88
2023/09/27 04:31:50;;;;;;;26.10;24.40;;;;;;;;;;4998277;28;20445;-89
2023/09/27 04:34:18;;;;;;;27.10;25.20;;;;;;;;;;4995777;28;20500;-88
2023/09/27 04:36:45;;;;;;;27.00;25.30;;;;;;;;;;4995360;28;20450;-87
2023/09/27 04:39:14;;;;;;;27.10;25.40;;;;;;;;;;4996446;28;20445;-87
2023/09/27 04:41:42;;;;;;;26.00;24.40;;;;;;;;;;5000200;28;20532;-87
2023/09/27 04:44:09;;;;;;;26.57;24.87;;;;;;;;;;5017728;28;20489;-88
2023/09/27 04:46:36;;;;;;;26.60;24.97;;;;;;;;;;5015235;28;20418;-88
2023/09/27 04:49:03;;;;;;;27.10;25.10;;;;;;;;;;5016218;28;20479;-88
2023/09/27 04:51:32;;;;;;;28.30;26.30;;;;;;;;;;5016431;28;20452;-88
2023/09/27 04:54:02;;;;;;;27.27;25.60;;;;;;;;;;5015406;28;20536;-89
2023/09/27 04:56:29;;;;;;;26.50;24.90;;;;;;;;;;5014340;28;20445;-88
2023/09/27 04:58:56;;;;;;;27.50;25.70;;;;;;;;;;5015407;28;20411;-88
2023/09/27 05:01:25;;;;;;;28.20;26.40;;;;;;;;;;5015429;28;20474;-89
2023/09/27 05:03:52;;;;;;;27.60;25.90;;;;;;;;;;5018220;28;21167;-88
2023/09/27 05:06:19;;;;;;;27.77;25.40;;;;;;;;;;5018559;28;20463;-88
2023/09/27 05:08:49;;;;;;;26.80;25.10;;;;;;;;;;5017890;28;20476;-88
2023/09/27 05:11:18;;;;;;;26.63;25.03;;;;;;;;;;5018954;28;20790;-88
2023/09/27 05:13:45;;;;;;;26.27;24.77;;;;;;;;;;5011410;28;20456;-89
2023/09/27 05:16:12;;;;;;;27.63;25.87;;;;;;;;;;4994969;28;20465;-88
2023/09/27 05:18:44;;;;;;;27.80;26.03;;;;;;;;;;4995054;28;20521;-88
2023/09/27 05:21:12;;;;;;;27.37;25.50;;;;;;;;;;4995242;28;20501;-89
2023/09/27 05:23:39;;;;;;;27.87;25.87;;;;;;;;;;4995937;28;20452;-89
2023/09/27 05:26:11;;;;;;;27.17;25.57;;;;;;;;;;4996177;28;20453;-89
2023/09/27 05:28:38;;;;;;;25.30;23.83;;;;;;;;;;5001128;28;20417;-90
2023/09/27 05:31:05;;;;;;;25.37;23.87;;;;;;;;;;4995448;28;20467;-88
2023/09/27 05:33:33;;;;;;;24.90;23.40;;;;;;;;;;4995375;28;20477;-87
2023/09/27 05:36:00;;;;;;;25.60;24.10;;;;;;;;;;4995241;28;20969;-88
2023/09/27 05:38:27;;;;;;;23.93;22.33;;;;;;;;;;4994854;28;20464;-88
2023/09/27 05:40:54;;;;;;;25.70;24.23;;;;;;;;;;4994825;28;20442;-88
2023/09/27 05:43:23;;;;;;;26.80;25.10;;;;;;;;;;4994687;28;20485;-88
2023/09/27 05:45:50;;;;;;;25.37;23.77;;;;;;;;;;4995103;28;20431;-82
2023/09/27 05:48:17;;;;;;;26.83;24.93;;;;;;;;;;5015833;28;20456;-84
2023/09/27 05:50:46;;;;;;;25.20;23.70;;;;;;;;;;5017653;28;20491;-82
2023/09/27 05:53:16;;;;;;;25.47;23.90;;;;;;;;;;5017963;28;20443;-82
2023/09/27 05:55:44;;;;;;;25.13;23.63;;;;;;;;;;5017060;28;20431;-83
2023/09/27 05:58:11;;;;;;;24.03;22.63;;;;;;;;;;5017406;28;20975;-83
2023/09/27 06:00:42;;;;;;;25.10;23.37;;;;;;;;;;5017020;28;21236;-82
2023/09/27 06:03:09;;;;;;;23.60;22.23;;;;;;;;;;5017283;28;20478;-82
2023/09/27 06:05:36;;;;;;;23.97;22.67;;;;;;;;;;5016699;28;20429;-83
2023/09/27 06:08:04;;;;;;;24.90;23.40;;;;;;;;;;5004258;28;21004;-84
2023/09/27 06:10:31;;;;;;;27.03;25.33;;;;;;;;;;4997120;28;20452;-83
2023/09/27 06:12:58;;;;;;;27.03;24.93;;;;;;;;;;4999111;28;20501;-83
2023/09/27 06:15:25;;;;;;;25.17;23.67;;;;;;;;;;5017231;28;20404;-84
2023/09/27 06:17:53;;;;;;;27.07;25.27;;;;;;;;;;5016477;28;20456;-84
2023/09/27 06:20:22;;;;;;;25.03;23.37;;;;;;;;;;5017828;28;20412;-83
2023/09/27 06:22:49;;;;;;;26.70;25.00;;;;;;;;;;5018323;28;20450;-84
2023/09/27 06:25:17;;;;;;;25.00;23.40;;;;;;;;;;5018753;28;20516;-82
2023/09/27 06:27:44;;;;;;;24.30;22.70;;;;;;;;;;5017281;28;20518;-82
2023/09/27 06:30:12;;;;;;;24.10;22.63;;;;;;;;;;5018394;28;20484;-84
2023/09/27 06:32:39;;;;;;;25.67;24.07;;;;;;;;;;5017563;28;20460;-82
2023/09/27 06:35:12;;;;;;;25.43;23.73;;;;;;;;;;5008196;28;20461;-84
2023/09/27 06:37:39;;;;;;;24.93;23.43;;;;;;;;;;5016929;28;20458;-84
2023/09/27 06:40:08;;;;;;;24.67;23.07;;;;;;;;;;5017210;28;20418;-83
2023/09/27 06:42:36;;;;;;;25.70;24.10;;;;;;;;;;5012952;28;20449;-83
2023/09/27 06:45:04;;;;;;;24.97;23.67;;;;;;;;;;4997500;28;20469;-84
2023/09/27 06:47:35;;;;;;;25.47;23.87;;;;;;;;;;4997674;28;20457;-83
2023/09/27 06:50:02;;;;;;;24.30;22.80;;;;;;;;;;4997782;28;20542;-83
2023/09/27 06:52:31;;;;;;;25.20;23.70;;;;;;;;;;4997897;28;20455;-84
2023/09/27 06:54:59;;;;;;;24.17;22.67;;;;;;;;;;4997885;28;20455;-85
2023/09/27 06:57:26;;;;;;;25.20;23.60;;;;;;;;;;4996427;28;20442;-83
2023/09/27 06:59:53;;;;;;;24.27;22.80;;;;;;;;;;4997644;28;20420;-85
2023/09/27 07:02:21;;;;;;;24.80;23.30;;;;;;;;;;4997131;28;20845;-83
2023/09/27 07:04:48;;;;;;;22.73;21.53;;;;;;;;;;4997204;28;20494;-83
2023/09/27 07:07:15;;;;;;;24.27;22.80;;;;;;;;;;4996848;28;20436;-85
2023/09/27 07:09:43;;;;;;;24.10;22.60;;;;;;;;;;4997533;28;20493;-84
2023/09/27 07:12:10;;;;;;;24.97;23.00;;;;;;;;;;4997009;28;20474;-84
2023/09/27 07:14:37;;;;;;;23.80;22.17;;;;;;;;;;4997303;28;20480;-83
2023/09/27 07:17:05;;;;;;;24.97;23.20;;;;;;;;;;4997134;28;20423;-83
2023/09/27 07:19:32;;;;;;;23.93;22.63;;;;;;;;;;4997461;28;20451;-84
2023/09/27 07:22:01;;;;;;;22.83;21.50;;;;;;;;;;4996804;28;20478;-85
2023/09/27 07:24:31;;;;;;;24.33;22.83;;;;;;;;;;4997291;28;20435;-84
2023/09/27 07:26:59;;;;;;;22.13;20.93;;;;;;;;;;4996836;28;20436;-83
2023/09/27 07:29:27;;;;;;;23.07;21.67;;;;;;;;;;5012506;28;20442;-81
2023/09/27 07:31:54;;;;;;;22.80;21.30;;;;;;;;;;4997359;28;20412;-83
2023/09/27 07:34:21;;;;;;;22.17;20.93;;;;;;;;;;5005513;28;20475;-80
2023/09/27 07:36:48;;;;;;;24.40;22.90;;;;;;;;;;5005622;28;20485;-79
2023/09/27 07:39:17;;;;;;;24.23;22.83;;;;;;;;;;5000350;28;20423;-89
2023/09/27 07:41:44;;;;;;;22.30;20.83;;;;;;;;;;5006997;28;20443;-87
2023/09/27 07:44:14;;;;;;;21.53;20.23;;;;;;;;;;5008650;28;20502;-82
2023/09/27 07:46:42;;;;;;;21.30;20.03;;;;;;;;;;4997790;28;20453;-88
2023/09/27 07:49:09;;;;;;;20.97;19.80;;;;;;;;;;5015757;28;20427;-88
2023/09/27 07:51:36;;;;;;;21.43;20.20;;;;;;;;;;5015283;28;20484;-89
2023/09/27 07:54:07;;;;;;;21.07;19.97;;;;;;;;;;5014657;28;20465;-87
2023/09/27 07:56:39;;;;;;;22.80;21.40;;;;;;;;;;5014573;28;20436;-88
2023/09/27 07:59:06;;;;;;;23.57;22.07;;;;;;;;;;5014850;28;20415;-88
2023/09/27 08:01:37;;;;;;;22.77;21.23;;;;;;;;;;5014700;28;20482;-88
2023/09/27 08:04:06;;;;;;;22.57;21.27;;;;;;;;;;5015250;28;20443;-89
2023/09/27 08:06:34;;;;;;;26.20;21.90;;;;;;;;;;5014321;28;20462;-88
2023/09/27 08:09:01;;;;;;;22.90;21.60;;;;;;;;;;5014411;28;20462;-88
2023/09/27 08:11:28;;;;;;;22.77;21.47;;;;;;;;;;5014776;28;20503;-88
2023/09/27 08:13:55;;;;;;;22.47;20.97;;;;;;;;;;5014936;28;20822;-90
2023/09/27 08:16:23;;;;;;;23.13;21.60;;;;;;;;;;5015263;28;20444;-83
2023/09/27 08:18:51;;;;;;;22.43;21.23;;;;;;;;;;5015275;28;20458;-87
2023/09/27 08:21:18;;;;;;;23.93;22.37;;;;;;;;;;5015431;28;20418;-83
2023/09/27 08:23:45;;;;;;;22.63;21.27;;;;;;;;;;5002345;28;20872;-82
2023/09/27 08:26:13;;;;;;;22.70;21.40;;;;;;;;;;4995260;28;20905;-87
2023/09/27 08:28:40;;;;;;;22.77;21.33;;;;;;;;;;4995992;28;20466;-88
2023/09/27 08:31:07;;;;;;;21.77;20.53;;;;;;;;;;4996202;28;20558;-87
2023/09/27 08:33:34;;;;;;;23.63;22.00;;;;;;;;;;5010679;28;20487;-87
2023/09/27 08:36:03;;;;;;;22.93;21.40;;;;;;;;;;4996573;28;20446;-87
2023/09/27 08:38:30;;;;;;;23.10;21.53;;;;;;;;;;4995717;28;20420;-87
2023/09/27 08:40:57;;;;;;;23.47;22.00;;;;;;;;;;4995708;28;20455;-87
2023/09/27 08:43:26;;;;;;;24.13;22.53;;;;;;;;;;5006604;28;20497;-88
2023/09/27 08:45:53;;;;;;;22.97;21.43;;;;;;;;;;4995493;28;20510;-88
2023/09/27 08:48:22;;;;;;;22.33;21.00;;;;;;;;;;4997654;28;20436;-88
2023/09/27 08:50:50;;;;;;;23.03;21.53;;;;;;;;;;4995472;28;20491;-88
2023/09/27 08:53:19;;;;;;;24.03;22.40;;;;;;;;;;5011575;28;20471;-87
2023/09/27 08:55:48;;;;;;;22.83;21.43;;;;;;;;;;5002635;28;20462;-88
2023/09/27 08:58:16;;;;;;;22.77;21.27;;;;;;;;;;4995828;28;20463;-88
2023/09/27 09:00:43;;;;;;;22.17;20.97;;;;;;;;;;4995876;28;20924;-87
2023/09/27 09:03:11;;;;;;;22.13;20.80;;;;;;;;;;5015628;28;20556;-86
2023/09/27 09:05:40;;;;;;;22.83;21.50;;;;;;;;;;5015155;28;20863;-88
2023/09/27 09:08:07;;;;;;;22.50;21.30;;;;;;;;;;5013622;28;20463;-88
2023/09/27 09:10:37;;;;;;;22.97;21.70;;;;;;;;;;5015994;28;20519;-86
2023/09/27 09:13:05;;;;;;;21.93;20.63;;;;;;;;;;4997429;28;20500;-87
2023/09/27 09:15:40;;;;;;;23.00;21.60;;;;;;;;;;4996076;28;20461;-88
2023/09/27 09:18:08;;;;;;;22.70;21.30;;;;;;;;;;4995881;28;20453;-88
2023/09/27 09:20:49;;;;;;;23.00;21.60;;;;;;;;;;4996371;28;20441;-86
2023/09/27 09:23:30;;;;;;;22.50;21.30;;;;;;;;;;5000133;28;20495;-86
2023/09/27 09:25:59;;;;;;;23.20;21.50;;;;;;;;;;4998973;28;20461;-88
2023/09/27 09:28:26;;;;;;;22.23;20.80;;;;;;;;;;5000007;28;20463;-87
2023/09/27 09:30:54;;;;;;;23.00;21.80;;;;;;;;;;4998833;28;20462;-89
2023/09/27 09:33:21;;;;;;;22.10;20.73;;;;;;;;;;4998205;28;20512;-87
2023/09/27 09:35:50;;;;;;;22.60;21.30;;;;;;;;;;5014532;28;20431;-88
2023/09/27 09:38:25;;;;;;;22.83;21.43;;;;;;;;;;5000869;28;20460;-88
2023/09/27 09:40:53;;;;;;;23.10;21.70;;;;;;;;;;4998698;28;20411;-88
2023/09/27 09:43:31;;;;;;;22.17;20.97;;;;;;;;;;4998682;28;20527;-88
2023/09/27 09:45:58;;;;;;;23.30;21.80;;;;;;;;;;4998534;28;20475;-88
2023/09/27 09:48:26;;;;;;;23.07;21.77;;;;;;;;;;5016979;28;20491;-88
2023/09/27 09:50:57;;;;;;;23.70;22.20;;;;;;;;;;5017546;28;20849;-88
2023/09/27 09:53:24;;;;;;;23.33;22.00;;;;;;;;;;5018095;28;20465;-88
2023/09/27 09:55:53;;;;;;;21.77;20.40;;;;;;;;;;5017133;28;20536;-88
2023/09/27 09:58:25;;;;;;;22.80;21.50;;;;;;;;;;5019006;28;20448;-89
2023/09/27 10:00:55;;;;;;;22.17;20.77;;;;;;;;;;5016680;28;20881;-89
2023/09/27 10:03:23;;;;;;;22.47;21.20;;;;;;;;;;4978103;28;20458;-89
2023/09/27 10:05:51;;;;;;;22.80;21.20;;;;;;;;;;4977581;28;20424;-89
2023/09/27 10:08:19;;;;;;;22.90;21.40;;;;;;;;;;4977946;28;20461;-87
2023/09/27 10:10:47;;;;;;;21.73;20.53;;;;;;;;;;4978029;28;20485;-87
2023/09/27 10:13:14;;;;;;;21.83;20.50;;;;;;;;;;4978725;28;20474;-86
2023/09/27 10:15:42;;;;;;;22.77;21.27;;;;;;;;;;4977424;28;20496;-87
2023/09/27 10:18:29;;;;;;;21.57;20.17;;;;;;;;;;4978055;28;20803;-83
2023/09/27 10:21:08;;;;;;;22.87;21.33;;;;;;;;;;4980033;28;20474;-84
2023/09/27 10:23:36;;;;;;;22.77;21.13;;;;;;;;;;4980488;28;21163;-83
2023/09/27 10:26:19;;;;;;;22.57;20.93;;;;;;;;;;4979864;28;20439;-83
2023/09/27 10:29:07;;;;;;;22.30;20.90;;;;;;;;;;4980638;28;20525;-84
2023/09/27 10:31:36;;;;;;;22.33;21.03;;;;;;;;;;4981072;28;20448;-84
2023/09/27 10:34:03;;;;;;;20.90;19.90;;;;;;;;;;4979452;28;20542;-83
2023/09/27 10:36:32;;;;;;;21.37;20.17;;;;;;;;;;4987834;28;20799;-84
2023/09/27 10:39:05;;;;;;;21.33;20.03;;;;;;;;;;5018524;28;20423;-84
2023/09/27 10:41:46;;;;;;;20.73;19.63;;;;;;;;;;5011283;28;20438;-85
2023/09/27 10:44:14;;;;;;;21.17;19.90;;;;;;;;;;4999562;28;20911;-83
2023/09/27 10:46:41;;;;;;;22.07;20.10;;;;;;;;;;4999056;28;20461;-83
2023/09/27 10:49:09;;;;;;;21.53;20.30;;;;;;;;;;4999237;28;20537;-83
2023/09/27 10:51:37;;;;;;;22.33;20.93;;;;;;;;;;5003094;28;20508;-84
2023/09/27 10:54:08;;;;;;;22.10;20.70;;;;;;;;;;4998248;28;20436;-84
2023/09/27 10:56:36;;;;;;;20.50;19.40;;;;;;;;;;4998622;28;20488;-82
2023/09/27 10:59:03;;;;;;;21.17;20.07;;;;;;;;;;4999083;28;20476;-84
2023/09/27 11:01:31;;;;;;;20.77;19.67;;;;;;;;;;4999124;28;20449;-83
2023/09/27 11:03:58;;;;;;;21.17;19.87;;;;;;;;;;4998934;28;20469;-85
2023/09/27 11:06:25;;;;;;;21.27;19.90;;;;;;;;;;4998237;28;20508;-82
2023/09/27 11:09:04;;;;;;;19.50;18.50;;;;;;;;;;4998728;28;20443;-82
2023/09/27 11:11:31;;;;;;;21.17;20.03;;;;;;;;;;4998172;28;21020;-84
2023/09/27 11:13:58;;;;;;;21.30;20.20;;;;;;;;;;4997531;28;20970;-84
2023/09/27 11:16:25;;;;;;;19.80;18.70;;;;;;;;;;4997755;28;20454;-83
2023/09/27 11:18:52;;;;;;;21.00;19.80;;;;;;;;;;4997423;28;20810;-82
2023/09/27 11:21:20;;;;;;;20.67;19.50;;;;;;;;;;4997650;28;20452;-82
2023/09/27 11:23:58;;;;;;;19.83;18.73;;;;;;;;;;4997592;28;20485;-82
2023/09/27 11:26:26;;;;;;;19.27;18.17;;;;;;;;;;4997112;28;20453;-81
2023/09/27 11:29:00;;;;;;;20.67;19.37;;;;;;;;;;4996679;28;20800;-82
2023/09/27 11:31:28;;;;;;;19.47;18.37;;;;;;;;;;4996865;28;20575;-82
2023/09/27 11:34:11;;;;;;;20.63;19.53;;;;;;;;;;4999741;28;20488;-83
2023/09/27 11:36:41;;;;;;;20.30;19.10;;;;;;;;;;5014810;28;20898;-83
2023/09/27 11:39:10;;;;;;;20.87;19.77;;;;;;;;;;5015081;28;20459;-82
2023/09/27 11:41:37;;;;;;;21.70;20.50;;;;;;;;;;5017727;28;20448;-84
2023/09/27 11:44:17;;;;;;;20.77;19.47;;;;;;;;;;5017421;28;20447;-84
2023/09/27 11:46:45;;;;;;;21.40;20.20;;;;;;;;;;5016973;28;20407;-83
2023/09/27 11:49:12;;;;;;;21.40;20.20;;;;;;;;;;5017060;28;20963;-83
2023/09/27 11:51:39;;;;;;;22.57;21.07;;;;;;;;;;5017406;28;20463;-82
2023/09/27 11:54:07;;;;;;;22.00;20.90;;;;;;;;;;5015216;28;20942;-83
2023/09/27 11:56:37;;;;;;;21.70;20.43;;;;;;;;;;5017471;28;20438;-82
2023/09/27 11:59:04;;;;;;;22.73;20.90;;;;;;;;;;5018043;28;20435;-82
2023/09/27 12:01:31;;;;;;;21.50;20.30;;;;;;;;;;5017879;28;20785;-82
2023/09/27 12:03:59;;;;;;;22.70;21.40;;;;;;;;;;5016919;28;20451;-82
2023/09/27 12:06:28;;;;;;;20.90;19.70;;;;;;;;;;5016129;28;20460;-83
2023/09/27 12:08:55;;;;;;;21.80;20.50;;;;;;;;;;5001696;28;20495;-83
2023/09/27 12:11:23;;;;;;;21.90;20.70;;;;;;;;;;4996929;28;20506;-82
2023/09/27 12:13:52;;;;;;;22.43;21.13;;;;;;;;;;5005554;28;20537;-79
2023/09/27 12:16:20;;;;;;;22.10;20.80;;;;;;;;;;5015340;28;20430;-82
2023/09/27 12:18:49;;;;;;;21.73;20.50;;;;;;;;;;5016032;28;20797;-77
2023/09/27 12:21:16;;;;;;;22.20;20.97;;;;;;;;;;5014486;28;20994;-87
2023/09/27 12:23:44;;;;;;;21.30;20.10;;;;;;;;;;5014661;28;20451;-78
2023/09/27 12:26:12;;;;;;;22.43;21.23;;;;;;;;;;5011697;28;20445;-74
2023/09/27 12:28:39;;;;;;;21.70;20.30;;;;;;;;;;4975328;28;20454;-84
2023/09/27 12:31:08;;;;;;;22.27;21.07;;;;;;;;;;4977346;28;20427;-83
2023/09/27 12:33:36;;;;;;;22.67;21.40;;;;;;;;;;4977802;28;20453;-84
2023/09/27 12:36:04;;;;;;;22.77;21.53;;;;;;;;;;4977849;28;20486;-82
2023/09/27 12:38:31;;;;;;;21.93;20.53;;;;;;;;;;4978358;28;20462;-83
2023/09/27 12:41:00;;;;;;;23.10;21.83;;;;;;;;;;4977811;28;20424;-84
2023/09/27 12:43:27;;;;;;;22.13;20.83;;;;;;;;;;4978570;28;20441;-83
2023/09/27 12:45:56;;;;;;;21.70;20.50;;;;;;;;;;4977351;28;20450;-83
2023/09/27 12:48:25;;;;;;;21.67;20.57;;;;;;;;;;4978348;28;20450;-83
2023/09/27 12:50:52;;;;;;;22.77;21.47;;;;;;;;;;4978530;28;20436;-82
2023/09/27 12:53:20;;;;;;;22.90;21.40;;;;;;;;;;4978231;28;20580;-84
2023/09/27 12:55:47;;;;;;;22.47;21.27;;;;;;;;;;4978450;28;20446;-85
2023/09/27 12:58:14;;;;;;;23.00;21.80;;;;;;;;;;4979745;28;20465;-86
2023/09/27 13:00:42;;;;;;;22.80;21.50;;;;;;;;;;4978610;28;20553;-86
2023/09/27 13:03:10;;;;;;;23.10;21.80;;;;;;;;;;4979003;28;20558;-84
2023/09/27 13:05:39;;;;;;;22.30;21.10;;;;;;;;;;4980484;28;20465;-84
2023/09/27 13:08:06;;;;;;;22.70;21.50;;;;;;;;;;4980196;28;20413;-83
2023/09/27 13:10:34;;;;;;;22.93;21.73;;;;;;;;;;4979236;28;20482;-86
2023/09/27 13:13:02;;;;;;;23.07;21.70;;;;;;;;;;4980013;28;20482;-83
2023/09/27 13:15:29;;;;;;;23.57;22.27;;;;;;;;;;4980370;28;20454;-84
2023/09/27 13:17:56;;;;;;;22.50;21.20;;;;;;;;;;4979289;28;20454;-87
2023/09/27 13:20:23;;;;;;;22.60;21.30;;;;;;;;;;4987745;28;20472;-81
2023/09/27 13:22:52;;;;;;;22.03;20.63;;;;;;;;;;4997658;28;20458;-80
2023/09/27 13:25:20;;;;;;;21.90;20.70;;;;;;;;;;4996559;28;20468;-79
2023/09/27 13:27:47;;;;;;;22.50;21.20;;;;;;;;;;4995968;28;20460;-80
2023/09/27 13:30:15;;;;;;;22.63;21.33;;;;;;;;;;4997262;28;20449;-80
2023/09/27 13:32:42;;;;;;;22.07;20.77;;;;;;;;;;4997404;28;20555;-86
2023/09/27 13:35:10;;;;;;;23.40;22.10;;;;;;;;;;4997773;28;20461;-86
2023/09/27 13:37:37;;;;;;;21.80;20.60;;;;;;;;;;4998000;28;20454;-87
2023/09/27 13:40:12;;;;;;;21.97;20.70;;;;;;;;;;4997884;28;20434;-87
2023/09/27 13:42:39;;;;;;;22.90;21.50;;;;;;;;;;4998766;28;20972;-88
2023/09/27 13:45:07;;;;;;;21.70;20.33;;;;;;;;;;4998463;28;20445;-88
2023/09/27 13:47:35;;;;;;;22.73;21.23;;;;;;;;;;4997706;28;20469;-87
2023/09/27 13:50:04;;;;;;;22.90;21.60;;;;;;;;;;4995792;28;20508;-86
2023/09/27 13:52:32;;;;;;;23.47;22.07;;;;;;;;;;5005437;28;20459;-87
2023/09/27 13:54:59;;;;;;;23.23;21.83;;;;;;;;;;5016477;28;20520;-84
2023/09/27 13:57:28;;;;;;;22.27;20.80;;;;;;;;;;5017626;28;20428;-82
2023/09/27 13:59:55;;;;;;;23.90;22.30;;;;;;;;;;5016941;28;20448;-81
2023/09/27 14:02:22;;;;;;;23.30;21.80;;;;;;;;;;5016097;28;20962;-83
2023/09/27 14:04:51;;;;;;;23.20;21.80;;;;;;;;;;5014882;28;20454;-84
2023/09/27 14:07:19;;;;;;;24.13;22.63;;;;;;;;;;5015284;28;20522;-90
2023/09/27 14:09:52;;;;;;;22.90;21.60;;;;;;;;;;5018532;28;20440;-87
2023/09/27 14:12:19;;;;;;;23.20;21.47;;;;;;;;;;5018936;28;20506;-82
2023/09/27 14:14:50;;;;;;;24.30;22.80;;;;;;;;;;5013302;28;20456;-75
2023/09/27 14:17:17;;;;;;;22.90;21.30;;;;;;;;;;5012902;28;20433;-74
2023/09/27 14:19:45;;;;;;;22.33;20.93;;;;;;;;;;5014507;28;20836;-85
2023/09/27 14:22:13;;;;;;;22.53;21.33;;;;;;;;;;5018129;28;20504;-84